sensor_id;sensor_type;location;lat;lon;timestamp;P1;durP1;ratioP1;P2;durP2;ratioP2
41677;SDS011;27364;49.026;8.712;2023-06-24T00:02:08;2.42;;;0.80;;
41677;SDS011;27364;49.026;8.712;2023-06-24T00:04:33;0.95;;;0.90;;
41677;SDS011;27364;49.026;8.712;2023-06-24T00:06:59;0.82;;;0.82;;
41677;SDS011;27364;49.026;8.712;2023-06-24T00:09:26;0.93;;;0.80;;
41677;SDS011;27364;49.026;8.712;2023-06-24T00:11:55;1.05;;;0.95;;
41677;SDS011;27364;49.026;8.712;2023-06-24T00:14:22;0.98;;;0.90;;
41677;SDS011;27364;49.026;8.712;2023-06-24T00:16:51;0.80;;;0.77;;
41677;SDS011;27364;49.026;8.712;2023-06-24T00:19:21;2.95;;;1.50;;
41677;SDS011;27364;49.026;8.712;2023-06-24T00:21:49;0.75;;;0.75;;
41677;SDS011;27364;49.026;8.712;2023-06-24T00:24:21;1.10;;;0.93;;
41677;SDS011;27364;49.026;8.712;2023-06-24T00:26:53;0.80;;;0.80;;
41677;SDS011;27364;49.026;8.712;2023-06-24T00:29:19;1.50;;;1.10;;
41677;SDS011;27364;49.026;8.712;2023-06-24T00:31:45;1.65;;;1.42;;
41677;SDS011;27364;49.026;8.712;2023-06-24T00:34:10;1.48;;;1.38;;
41677;SDS011;27364;49.026;8.712;2023-06-24T00:36:36;1.25;;;1.15;;
41677;SDS011;27364;49.026;8.712;2023-06-24T00:39:03;0.98;;;0.98;;
41677;SDS011;27364;49.026;8.712;2023-06-24T00:41:29;1.20;;;1.10;;
41677;SDS011;27364;49.026;8.712;2023-06-24T00:43:55;3.35;;;1.25;;
41677;SDS011;27364;49.026;8.712;2023-06-24T00:46:25;0.68;;;0.68;;
41677;SDS011;27364;49.026;8.712;2023-06-24T00:48:52;0.98;;;0.90;;
41677;SDS011;27364;49.026;8.712;2023-06-24T00:51:18;1.40;;;1.08;;
41677;SDS011;27364;49.026;8.712;2023-06-24T00:53:46;1.17;;;0.98;;
41677;SDS011;27364;49.026;8.712;2023-06-24T00:56:13;0.75;;;0.75;;
41677;SDS011;27364;49.026;8.712;2023-06-24T00:58:41;2.13;;;1.23;;
41677;SDS011;27364;49.026;8.712;2023-06-24T01:01:09;0.95;;;0.88;;
41677;SDS011;27364;49.026;8.712;2023-06-24T01:03:35;1.23;;;1.13;;
41677;SDS011;27364;49.026;8.712;2023-06-24T01:06:02;1.43;;;1.23;;
41677;SDS011;27364;49.026;8.712;2023-06-24T01:08:27;1.65;;;1.17;;
41677;SDS011;27364;49.026;8.712;2023-06-24T01:10:53;1.02;;;0.98;;
41677;SDS011;27364;49.026;8.712;2023-06-24T01:13:19;1.70;;;1.15;;
41677;SDS011;27364;49.026;8.712;2023-06-24T01:15:45;1.63;;;1.00;;
41677;SDS011;27364;49.026;8.712;2023-06-24T01:18:13;1.55;;;1.02;;
41677;SDS011;27364;49.026;8.712;2023-06-24T01:20:52;0.98;;;0.95;;
41677;SDS011;27364;49.026;8.712;2023-06-24T01:28:41;0.95;;;0.90;;
41677;SDS011;27364;49.026;8.712;2023-06-24T01:31:37;1.60;;;1.50;;
41677;SDS011;27364;49.026;8.712;2023-06-24T01:34:23;1.73;;;1.15;;
41677;SDS011;27364;49.026;8.712;2023-06-24T01:42:11;1.00;;;0.98;;
41677;SDS011;27364;49.026;8.712;2023-06-24T01:44:41;1.88;;;1.33;;
41677;SDS011;27364;49.026;8.712;2023-06-24T01:47:09;2.55;;;1.70;;
41677;SDS011;27364;49.026;8.712;2023-06-24T01:49:37;1.58;;;1.25;;
41677;SDS011;27364;49.026;8.712;2023-06-24T01:52:07;1.15;;;1.02;;
41677;SDS011;27364;49.026;8.712;2023-06-24T01:57:00;0.93;;;0.93;;
41677;SDS011;27364;49.026;8.712;2023-06-24T01:59:28;1.48;;;1.20;;
41677;SDS011;27364;49.026;8.712;2023-06-24T02:01:54;3.33;;;1.48;;
41677;SDS011;27364;49.026;8.712;2023-06-24T02:04:22;1.33;;;1.23;;
41677;SDS011;27364;49.026;8.712;2023-06-24T02:06:49;1.23;;;1.03;;
41677;SDS011;27364;49.026;8.712;2023-06-24T02:09:16;1.58;;;1.30;;
41677;SDS011;27364;49.026;8.712;2023-06-24T02:14:10;1.80;;;1.23;;
41677;SDS011;27364;49.026;8.712;2023-06-24T02:16:38;1.42;;;1.17;;
41677;SDS011;27364;49.026;8.712;2023-06-24T02:19:07;6.03;;;1.10;;
41677;SDS011;27364;49.026;8.712;2023-06-24T02:21:34;1.48;;;1.35;;
41677;SDS011;27364;49.026;8.712;2023-06-24T02:24:01;1.27;;;1.17;;
41677;SDS011;27364;49.026;8.712;2023-06-24T02:26:27;1.60;;;1.38;;
41677;SDS011;27364;49.026;8.712;2023-06-24T02:28:53;1.02;;;0.95;;
41677;SDS011;27364;49.026;8.712;2023-06-24T02:31:20;1.20;;;1.10;;
41677;SDS011;27364;49.026;8.712;2023-06-24T02:33:46;1.95;;;1.15;;
41677;SDS011;27364;49.026;8.712;2023-06-24T02:36:11;1.50;;;1.27;;
41677;SDS011;27364;49.026;8.712;2023-06-24T02:38:37;1.67;;;1.48;;
41677;SDS011;27364;49.026;8.712;2023-06-24T02:41:03;1.58;;;1.20;;
41677;SDS011;27364;49.026;8.712;2023-06-24T02:43:29;1.33;;;1.23;;
41677;SDS011;27364;49.026;8.712;2023-06-24T02:45:55;1.25;;;1.15;;
41677;SDS011;27364;49.026;8.712;2023-06-24T02:48:22;1.27;;;1.17;;
41677;SDS011;27364;49.026;8.712;2023-06-24T02:50:49;1.33;;;1.23;;
41677;SDS011;27364;49.026;8.712;2023-06-24T02:53:16;1.52;;;1.20;;
41677;SDS011;27364;49.026;8.712;2023-06-24T02:55:41;1.42;;;1.33;;
41677;SDS011;27364;49.026;8.712;2023-06-24T02:58:09;0.77;;;0.73;;
41677;SDS011;27364;49.026;8.712;2023-06-24T03:00:35;1.15;;;1.05;;
41677;SDS011;27364;49.026;8.712;2023-06-24T03:03:02;1.25;;;1.10;;
41677;SDS011;27364;49.026;8.712;2023-06-24T03:05:30;1.40;;;1.20;;
41677;SDS011;27364;49.026;8.712;2023-06-24T03:07:56;0.83;;;0.80;;
41677;SDS011;27364;49.026;8.712;2023-06-24T03:10:25;2.00;;;1.50;;
41677;SDS011;27364;49.026;8.712;2023-06-24T03:12:51;1.13;;;1.02;;
41677;SDS011;27364;49.026;8.712;2023-06-24T03:15:17;1.42;;;1.33;;
41677;SDS011;27364;49.026;8.712;2023-06-24T03:17:42;5.43;;;1.65;;
41677;SDS011;27364;49.026;8.712;2023-06-24T03:20:08;1.30;;;1.05;;
41677;SDS011;27364;49.026;8.712;2023-06-24T03:22:35;0.75;;;0.75;;
41677;SDS011;27364;49.026;8.712;2023-06-24T03:25:01;1.48;;;1.38;;
41677;SDS011;27364;49.026;8.712;2023-06-24T03:27:27;1.92;;;1.00;;
41677;SDS011;27364;49.026;8.712;2023-06-24T03:29:52;1.30;;;1.20;;
41677;SDS011;27364;49.026;8.712;2023-06-24T03:32:18;1.55;;;1.33;;
41677;SDS011;27364;49.026;8.712;2023-06-24T03:34:43;1.35;;;1.15;;
41677;SDS011;27364;49.026;8.712;2023-06-24T03:37:09;1.23;;;1.10;;
41677;SDS011;27364;49.026;8.712;2023-06-24T03:39:35;1.17;;;1.08;;
41677;SDS011;27364;49.026;8.712;2023-06-24T03:42:00;1.25;;;1.15;;
41677;SDS011;27364;49.026;8.712;2023-06-24T03:44:26;1.83;;;1.00;;
41677;SDS011;27364;49.026;8.712;2023-06-24T03:46:51;1.23;;;1.13;;
41677;SDS011;27364;49.026;8.712;2023-06-24T03:49:17;1.77;;;1.42;;
41677;SDS011;27364;49.026;8.712;2023-06-24T03:51:43;1.33;;;1.10;;
41677;SDS011;27364;49.026;8.712;2023-06-24T03:54:09;0.85;;;0.85;;
41677;SDS011;27364;49.026;8.712;2023-06-24T03:56:34;1.25;;;1.15;;
41677;SDS011;27364;49.026;8.712;2023-06-24T03:59:00;1.08;;;0.98;;
41677;SDS011;27364;49.026;8.712;2023-06-24T04:01:26;1.10;;;1.00;;
41677;SDS011;27364;49.026;8.712;2023-06-24T04:03:51;1.58;;;1.08;;
41677;SDS011;27364;49.026;8.712;2023-06-24T04:06:17;1.10;;;0.90;;
41677;SDS011;27364;49.026;8.712;2023-06-24T04:08:42;6.57;;;1.30;;
41677;SDS011;27364;49.026;8.712;2023-06-24T04:11:08;1.33;;;1.15;;
41677;SDS011;27364;49.026;8.712;2023-06-24T04:13:34;2.25;;;1.25;;
41677;SDS011;27364;49.026;8.712;2023-06-24T04:15:59;1.00;;;0.90;;
41677;SDS011;27364;49.026;8.712;2023-06-24T04:18:25;1.75;;;1.42;;
41677;SDS011;27364;49.026;8.712;2023-06-24T04:20:50;1.55;;;1.27;;
41677;SDS011;27364;49.026;8.712;2023-06-24T04:23:16;0.80;;;0.80;;
41677;SDS011;27364;49.026;8.712;2023-06-24T04:25:41;1.13;;;1.02;;
41677;SDS011;27364;49.026;8.712;2023-06-24T04:28:07;1.88;;;1.45;;
41677;SDS011;27364;49.026;8.712;2023-06-24T04:30:33;2.45;;;1.67;;
41677;SDS011;27364;49.026;8.712;2023-06-24T04:33:03;1.20;;;1.10;;
41677;SDS011;27364;49.026;8.712;2023-06-24T04:35:29;1.17;;;1.08;;
41677;SDS011;27364;49.026;8.712;2023-06-24T04:37:55;2.05;;;1.42;;
41677;SDS011;27364;49.026;8.712;2023-06-24T04:40:21;1.10;;;1.00;;
41677;SDS011;27364;49.026;8.712;2023-06-24T04:42:46;1.27;;;1.17;;
41677;SDS011;27364;49.026;8.712;2023-06-24T04:45:12;1.30;;;1.05;;
41677;SDS011;27364;49.026;8.712;2023-06-24T04:47:38;1.60;;;1.35;;
41677;SDS011;27364;49.026;8.712;2023-06-24T04:50:03;1.20;;;1.10;;
41677;SDS011;27364;49.026;8.712;2023-06-24T04:52:29;2.85;;;1.73;;
41677;SDS011;27364;49.026;8.712;2023-06-24T04:54:55;2.60;;;2.03;;
41677;SDS011;27364;49.026;8.712;2023-06-24T04:57:28;3.05;;;2.00;;
41677;SDS011;27364;49.026;8.712;2023-06-24T04:59:55;2.35;;;1.85;;
41677;SDS011;27364;49.026;8.712;2023-06-24T05:02:21;2.75;;;1.83;;
41677;SDS011;27364;49.026;8.712;2023-06-24T05:04:48;2.35;;;1.83;;
41677;SDS011;27364;49.026;8.712;2023-06-24T05:07:13;2.95;;;2.13;;
41677;SDS011;27364;49.026;8.712;2023-06-24T05:09:39;3.40;;;1.63;;
41677;SDS011;27364;49.026;8.712;2023-06-24T05:12:05;1.73;;;1.58;;
41677;SDS011;27364;49.026;8.712;2023-06-24T05:14:31;1.60;;;1.33;;
41677;SDS011;27364;49.026;8.712;2023-06-24T05:16:58;2.15;;;1.77;;
41677;SDS011;27364;49.026;8.712;2023-06-24T05:19:24;3.35;;;1.98;;
41677;SDS011;27364;49.026;8.712;2023-06-24T05:21:50;2.35;;;1.75;;
41677;SDS011;27364;49.026;8.712;2023-06-24T05:24:15;1.15;;;1.05;;
41677;SDS011;27364;49.026;8.712;2023-06-24T05:26:40;8.35;;;2.45;;
41677;SDS011;27364;49.026;8.712;2023-06-24T05:29:06;4.13;;;2.35;;
41677;SDS011;27364;49.026;8.712;2023-06-24T05:31:31;2.65;;;2.15;;
41677;SDS011;27364;49.026;8.712;2023-06-24T05:33:57;3.72;;;3.05;;
41677;SDS011;27364;49.026;8.712;2023-06-24T05:36:22;3.47;;;2.63;;
41677;SDS011;27364;49.026;8.712;2023-06-24T05:38:48;2.83;;;1.83;;
41677;SDS011;27364;49.026;8.712;2023-06-24T05:41:14;3.78;;;2.05;;
41677;SDS011;27364;49.026;8.712;2023-06-24T05:43:42;1.27;;;1.08;;
41677;SDS011;27364;49.026;8.712;2023-06-24T05:46:08;1.48;;;1.38;;
41677;SDS011;27364;49.026;8.712;2023-06-24T05:48:34;1.55;;;1.17;;
41677;SDS011;27364;49.026;8.712;2023-06-24T05:50:59;1.52;;;1.40;;
41677;SDS011;27364;49.026;8.712;2023-06-24T05:53:24;2.13;;;1.75;;
41677;SDS011;27364;49.026;8.712;2023-06-24T05:55:50;1.10;;;1.00;;
41677;SDS011;27364;49.026;8.712;2023-06-24T05:58:16;1.45;;;1.35;;
41677;SDS011;27364;49.026;8.712;2023-06-24T06:00:41;1.48;;;1.38;;
41677;SDS011;27364;49.026;8.712;2023-06-24T06:03:07;0.93;;;0.85;;
41677;SDS011;27364;49.026;8.712;2023-06-24T06:05:32;1.33;;;1.08;;
41677;SDS011;27364;49.026;8.712;2023-06-24T06:07:58;1.50;;;1.27;;
41677;SDS011;27364;49.026;8.712;2023-06-24T06:10:23;0.80;;;0.80;;
41677;SDS011;27364;49.026;8.712;2023-06-24T06:12:49;3.65;;;1.05;;
41677;SDS011;27364;49.026;8.712;2023-06-24T06:15:14;1.23;;;1.13;;
41677;SDS011;27364;49.026;8.712;2023-06-24T06:17:40;1.27;;;1.02;;
41677;SDS011;27364;49.026;8.712;2023-06-24T06:20:06;1.02;;;0.93;;
41677;SDS011;27364;49.026;8.712;2023-06-24T06:22:32;1.52;;;1.40;;
41677;SDS011;27364;49.026;8.712;2023-06-24T06:25:02;0.70;;;0.70;;
41677;SDS011;27364;49.026;8.712;2023-06-24T06:27:29;1.20;;;1.10;;
41677;SDS011;27364;49.026;8.712;2023-06-24T06:29:54;1.25;;;1.02;;
41677;SDS011;27364;49.026;8.712;2023-06-24T06:32:20;1.05;;;0.95;;
41677;SDS011;27364;49.026;8.712;2023-06-24T06:34:45;3.00;;;1.73;;
41677;SDS011;27364;49.026;8.712;2023-06-24T06:37:11;1.00;;;0.90;;
41677;SDS011;27364;49.026;8.712;2023-06-24T06:39:36;1.20;;;1.10;;
41677;SDS011;27364;49.026;8.712;2023-06-24T06:42:02;0.80;;;0.80;;
41677;SDS011;27364;49.026;8.712;2023-06-24T06:44:27;0.80;;;0.80;;
41677;SDS011;27364;49.026;8.712;2023-06-24T06:46:53;0.75;;;0.63;;
41677;SDS011;27364;49.026;8.712;2023-06-24T06:49:18;1.00;;;0.95;;
41677;SDS011;27364;49.026;8.712;2023-06-24T06:51:44;3.30;;;1.30;;
41677;SDS011;27364;49.026;8.712;2023-06-24T06:54:09;0.63;;;0.60;;
41677;SDS011;27364;49.026;8.712;2023-06-24T06:56:35;1.33;;;1.10;;
41677;SDS011;27364;49.026;8.712;2023-06-24T06:59:00;2.70;;;1.23;;
41677;SDS011;27364;49.026;8.712;2023-06-24T07:01:26;1.98;;;1.48;;
41677;SDS011;27364;49.026;8.712;2023-06-24T07:03:51;2.10;;;1.08;;
41677;SDS011;27364;49.026;8.712;2023-06-24T07:06:20;4.95;;;1.50;;
41677;SDS011;27364;49.026;8.712;2023-06-24T07:08:45;0.85;;;0.85;;
41677;SDS011;27364;49.026;8.712;2023-06-24T07:11:12;0.68;;;0.68;;
41677;SDS011;27364;49.026;8.712;2023-06-24T07:13:37;0.88;;;0.80;;
41677;SDS011;27364;49.026;8.712;2023-06-24T07:16:03;1.50;;;1.20;;
41677;SDS011;27364;49.026;8.712;2023-06-24T07:18:29;1.15;;;1.05;;
41677;SDS011;27364;49.026;8.712;2023-06-24T07:20:55;0.77;;;0.77;;
41677;SDS011;27364;49.026;8.712;2023-06-24T07:23:21;1.05;;;0.95;;
41677;SDS011;27364;49.026;8.712;2023-06-24T07:25:46;1.30;;;1.05;;
41677;SDS011;27364;49.026;8.712;2023-06-24T07:28:12;0.75;;;0.75;;
41677;SDS011;27364;49.026;8.712;2023-06-24T07:30:37;0.82;;;0.70;;
41677;SDS011;27364;49.026;8.712;2023-06-24T07:33:03;1.08;;;0.95;;
41677;SDS011;27364;49.026;8.712;2023-06-24T07:35:30;0.63;;;0.63;;
41677;SDS011;27364;49.026;8.712;2023-06-24T07:37:57;1.05;;;0.95;;
41677;SDS011;27364;49.026;8.712;2023-06-24T07:40:23;1.45;;;1.00;;
41677;SDS011;27364;49.026;8.712;2023-06-24T07:42:48;0.68;;;0.60;;
41677;SDS011;27364;49.026;8.712;2023-06-24T07:45:14;1.00;;;0.88;;
41677;SDS011;27364;49.026;8.712;2023-06-24T07:47:39;2.65;;;1.30;;
41677;SDS011;27364;49.026;8.712;2023-06-24T07:50:05;1.17;;;1.08;;
41677;SDS011;27364;49.026;8.712;2023-06-24T07:52:31;0.55;;;0.55;;
41677;SDS011;27364;49.026;8.712;2023-06-24T07:54:56;1.73;;;1.17;;
41677;SDS011;27364;49.026;8.712;2023-06-24T07:57:22;1.00;;;0.90;;
41677;SDS011;27364;49.026;8.712;2023-06-24T07:59:48;2.63;;;1.50;;
41677;SDS011;27364;49.026;8.712;2023-06-24T08:02:13;1.20;;;1.02;;
41677;SDS011;27364;49.026;8.712;2023-06-24T08:04:39;1.02;;;0.93;;
41677;SDS011;27364;49.026;8.712;2023-06-24T08:07:04;0.80;;;0.80;;
41677;SDS011;27364;49.026;8.712;2023-06-24T08:09:30;2.85;;;1.20;;
41677;SDS011;27364;49.026;8.712;2023-06-24T08:11:55;0.43;;;0.40;;
41677;SDS011;27364;49.026;8.712;2023-06-24T08:14:21;0.68;;;0.68;;
41677;SDS011;27364;49.026;8.712;2023-06-24T08:16:46;1.08;;;0.75;;
41677;SDS011;27364;49.026;8.712;2023-06-24T08:19:12;0.43;;;0.43;;
41677;SDS011;27364;49.026;8.712;2023-06-24T08:21:37;0.57;;;0.57;;
41677;SDS011;27364;49.026;8.712;2023-06-24T08:24:04;1.17;;;0.95;;
41677;SDS011;27364;49.026;8.712;2023-06-24T08:26:30;0.80;;;0.80;;
41677;SDS011;27364;49.026;8.712;2023-06-24T08:28:55;0.47;;;0.47;;
41677;SDS011;27364;49.026;8.712;2023-06-24T08:31:21;2.15;;;0.85;;
41677;SDS011;27364;49.026;8.712;2023-06-24T08:36:16;2.60;;;0.60;;
41677;SDS011;27364;49.026;8.712;2023-06-24T08:38:42;0.50;;;0.50;;
41677;SDS011;27364;49.026;8.712;2023-06-24T08:41:07;1.45;;;0.95;;
41677;SDS011;27364;49.026;8.712;2023-06-24T08:43:33;0.70;;;0.70;;
41677;SDS011;27364;49.026;8.712;2023-06-24T08:45:59;1.13;;;0.95;;
41677;SDS011;27364;49.026;8.712;2023-06-24T08:48:24;1.23;;;1.05;;
41677;SDS011;27364;49.026;8.712;2023-06-24T08:50:52;1.08;;;0.85;;
41677;SDS011;27364;49.026;8.712;2023-06-24T08:53:22;2.25;;;0.70;;
41677;SDS011;27364;49.026;8.712;2023-06-24T08:55:51;0.60;;;0.60;;
41677;SDS011;27364;49.026;8.712;2023-06-24T08:58:18;0.50;;;0.50;;
41677;SDS011;27364;49.026;8.712;2023-06-24T09:00:44;1.25;;;0.98;;
41677;SDS011;27364;49.026;8.712;2023-06-24T09:03:10;0.68;;;0.68;;
41677;SDS011;27364;49.026;8.712;2023-06-24T09:05:36;0.82;;;0.70;;
41677;SDS011;27364;49.026;8.712;2023-06-24T09:08:01;0.68;;;0.63;;
41677;SDS011;27364;49.026;8.712;2023-06-24T09:10:34;0.77;;;0.75;;
41677;SDS011;27364;49.026;8.712;2023-06-24T09:13:02;1.55;;;1.20;;
41677;SDS011;27364;49.026;8.712;2023-06-24T09:15:33;0.65;;;0.65;;
41677;SDS011;27364;49.026;8.712;2023-06-24T09:18:02;0.47;;;0.47;;
41677;SDS011;27364;49.026;8.712;2023-06-24T09:20:29;1.20;;;0.90;;
41677;SDS011;27364;49.026;8.712;2023-06-24T09:22:59;1.52;;;0.80;;
41677;SDS011;27364;49.026;8.712;2023-06-24T09:25:26;0.40;;;0.40;;
41677;SDS011;27364;49.026;8.712;2023-06-24T09:27:52;0.65;;;0.50;;
41677;SDS011;27364;49.026;8.712;2023-06-24T09:30:24;0.77;;;0.63;;
41677;SDS011;27364;49.026;8.712;2023-06-24T09:32:53;1.60;;;0.88;;
41677;SDS011;27364;49.026;8.712;2023-06-24T09:35:23;0.70;;;0.70;;
41677;SDS011;27364;49.026;8.712;2023-06-24T09:37:53;0.50;;;0.50;;
41677;SDS011;27364;49.026;8.712;2023-06-24T09:40:24;0.30;;;0.30;;
41677;SDS011;27364;49.026;8.712;2023-06-24T09:42:58;1.17;;;0.95;;
41677;SDS011;27364;49.026;8.712;2023-06-24T09:45:28;0.60;;;0.60;;
41677;SDS011;27364;49.026;8.712;2023-06-24T09:47:54;0.65;;;0.63;;
41677;SDS011;27364;49.026;8.712;2023-06-24T09:50:21;0.60;;;0.60;;
41677;SDS011;27364;49.026;8.712;2023-06-24T09:52:47;0.55;;;0.45;;
41677;SDS011;27364;49.026;8.712;2023-06-24T09:55:14;1.35;;;0.98;;
41677;SDS011;27364;49.026;8.712;2023-06-24T09:57:41;1.42;;;1.08;;
41677;SDS011;27364;49.026;8.712;2023-06-24T10:00:11;1.17;;;0.80;;
41677;SDS011;27364;49.026;8.712;2023-06-24T10:02:40;1.10;;;1.00;;
41677;SDS011;27364;49.026;8.712;2023-06-24T10:05:06;0.68;;;0.65;;
41677;SDS011;27364;49.026;8.712;2023-06-24T10:07:32;1.02;;;0.90;;
41677;SDS011;27364;49.026;8.712;2023-06-24T10:10:00;0.80;;;0.80;;
41677;SDS011;27364;49.026;8.712;2023-06-24T10:12:29;0.68;;;0.68;;
41677;SDS011;27364;49.026;8.712;2023-06-24T10:14:56;0.80;;;0.75;;
41677;SDS011;27364;49.026;8.712;2023-06-24T10:17:22;5.30;;;1.00;;
41677;SDS011;27364;49.026;8.712;2023-06-24T10:19:51;0.40;;;0.40;;
41677;SDS011;27364;49.026;8.712;2023-06-24T10:22:18;1.25;;;0.98;;
41677;SDS011;27364;49.026;8.712;2023-06-24T10:24:47;0.52;;;0.52;;
41677;SDS011;27364;49.026;8.712;2023-06-24T10:27:14;0.43;;;0.40;;
41677;SDS011;27364;49.026;8.712;2023-06-24T10:29:44;0.68;;;0.63;;
41677;SDS011;27364;49.026;8.712;2023-06-24T10:32:11;0.40;;;0.40;;
41677;SDS011;27364;49.026;8.712;2023-06-24T10:37:09;0.63;;;0.60;;
41677;SDS011;27364;49.026;8.712;2023-06-24T10:39:47;0.43;;;0.43;;
41677;SDS011;27364;49.026;8.712;2023-06-24T10:47:38;0.45;;;0.45;;
41677;SDS011;27364;49.026;8.712;2023-06-24T10:50:08;0.43;;;0.43;;
41677;SDS011;27364;49.026;8.712;2023-06-24T10:52:46;0.60;;;0.60;;
41677;SDS011;27364;49.026;8.712;2023-06-24T10:55:17;0.70;;;0.60;;
41677;SDS011;27364;49.026;8.712;2023-06-24T10:57:43;0.35;;;0.35;;
41677;SDS011;27364;49.026;8.712;2023-06-24T11:00:09;0.73;;;0.60;;
41677;SDS011;27364;49.026;8.712;2023-06-24T11:02:36;0.60;;;0.60;;
41677;SDS011;27364;49.026;8.712;2023-06-24T11:05:05;0.70;;;0.68;;
41677;SDS011;27364;49.026;8.712;2023-06-24T11:07:31;0.52;;;0.52;;
41677;SDS011;27364;49.026;8.712;2023-06-24T11:10:20;0.52;;;0.50;;
41677;SDS011;27364;49.026;8.712;2023-06-24T11:12:45;0.57;;;0.50;;
41677;SDS011;27364;49.026;8.712;2023-06-24T11:15:12;0.77;;;0.68;;
41677;SDS011;27364;49.026;8.712;2023-06-24T11:17:38;0.43;;;0.43;;
41677;SDS011;27364;49.026;8.712;2023-06-24T11:20:08;0.77;;;0.73;;
41677;SDS011;27364;49.026;8.712;2023-06-24T11:22:35;0.43;;;0.43;;
41677;SDS011;27364;49.026;8.712;2023-06-24T11:25:01;0.30;;;0.30;;
41677;SDS011;27364;49.026;8.712;2023-06-24T11:27:28;0.50;;;0.50;;
41677;SDS011;27364;49.026;8.712;2023-06-24T11:29:55;0.65;;;0.57;;
41677;SDS011;27364;49.026;8.712;2023-06-24T11:32:23;1.52;;;0.77;;
41677;SDS011;27364;49.026;8.712;2023-06-24T11:34:49;0.47;;;0.47;;
41677;SDS011;27364;49.026;8.712;2023-06-24T11:37:16;0.95;;;0.73;;
41677;SDS011;27364;49.026;8.712;2023-06-24T11:39:43;0.93;;;0.63;;
41677;SDS011;27364;49.026;8.712;2023-06-24T11:42:10;0.50;;;0.40;;
41677;SDS011;27364;49.026;8.712;2023-06-24T11:44:40;0.73;;;0.70;;
41677;SDS011;27364;49.026;8.712;2023-06-24T11:47:10;0.52;;;0.52;;
41677;SDS011;27364;49.026;8.712;2023-06-24T11:52:14;0.50;;;0.50;;
41677;SDS011;27364;49.026;8.712;2023-06-24T11:54:40;0.63;;;0.63;;
41677;SDS011;27364;49.026;8.712;2023-06-24T11:57:07;0.30;;;0.30;;
41677;SDS011;27364;49.026;8.712;2023-06-24T11:59:33;0.30;;;0.30;;
41677;SDS011;27364;49.026;8.712;2023-06-24T12:01:58;1.85;;;0.50;;
41677;SDS011;27364;49.026;8.712;2023-06-24T12:04:28;0.50;;;0.45;;
41677;SDS011;27364;49.026;8.712;2023-06-24T12:06:55;1.63;;;0.80;;
41677;SDS011;27364;49.026;8.712;2023-06-24T12:09:21;1.00;;;0.80;;
41677;SDS011;27364;49.026;8.712;2023-06-24T12:11:46;0.68;;;0.60;;
41677;SDS011;27364;49.026;8.712;2023-06-24T12:14:12;0.45;;;0.40;;
41677;SDS011;27364;49.026;8.712;2023-06-24T12:16:38;0.93;;;0.75;;
41677;SDS011;27364;49.026;8.712;2023-06-24T12:19:05;0.65;;;0.60;;
41677;SDS011;27364;49.026;8.712;2023-06-24T12:21:33;1.05;;;0.55;;
41677;SDS011;27364;49.026;8.712;2023-06-24T12:23:59;0.45;;;0.40;;
41677;SDS011;27364;49.026;8.712;2023-06-24T12:26:26;0.38;;;0.38;;
41677;SDS011;27364;49.026;8.712;2023-06-24T12:28:53;0.55;;;0.47;;
41677;SDS011;27364;49.026;8.712;2023-06-24T12:31:20;0.52;;;0.43;;
41677;SDS011;27364;49.026;8.712;2023-06-24T12:33:46;0.75;;;0.60;;
41677;SDS011;27364;49.026;8.712;2023-06-24T12:36:11;0.90;;;0.52;;
41677;SDS011;27364;49.026;8.712;2023-06-24T12:38:37;0.50;;;0.50;;
41677;SDS011;27364;49.026;8.712;2023-06-24T12:41:03;0.30;;;0.30;;
41677;SDS011;27364;49.026;8.712;2023-06-24T12:43:29;3.17;;;0.90;;
41677;SDS011;27364;49.026;8.712;2023-06-24T12:45:54;0.47;;;0.45;;
41677;SDS011;27364;49.026;8.712;2023-06-24T12:48:20;0.85;;;0.52;;
41677;SDS011;27364;49.026;8.712;2023-06-24T12:50:46;1.20;;;1.00;;
41677;SDS011;27364;49.026;8.712;2023-06-24T12:53:13;0.55;;;0.52;;
41677;SDS011;27364;49.026;8.712;2023-06-24T12:55:40;1.60;;;0.82;;
41677;SDS011;27364;49.026;8.712;2023-06-24T12:58:06;0.98;;;0.88;;
41677;SDS011;27364;49.026;8.712;2023-06-24T13:00:32;0.43;;;0.43;;
41677;SDS011;27364;49.026;8.712;2023-06-24T13:02:58;0.57;;;0.50;;
41677;SDS011;27364;49.026;8.712;2023-06-24T13:05:23;0.80;;;0.70;;
41677;SDS011;27364;49.026;8.712;2023-06-24T13:07:49;0.45;;;0.45;;
41677;SDS011;27364;49.026;8.712;2023-06-24T13:10:15;0.85;;;0.50;;
41677;SDS011;27364;49.026;8.712;2023-06-24T13:12:41;0.93;;;0.70;;
41677;SDS011;27364;49.026;8.712;2023-06-24T13:15:06;1.15;;;0.77;;
41677;SDS011;27364;49.026;8.712;2023-06-24T13:17:34;0.43;;;0.30;;
41677;SDS011;27364;49.026;8.712;2023-06-24T13:20:00;0.47;;;0.40;;
41677;SDS011;27364;49.026;8.712;2023-06-24T13:22:27;0.77;;;0.60;;
41677;SDS011;27364;49.026;8.712;2023-06-24T13:24:52;0.80;;;0.68;;
41677;SDS011;27364;49.026;8.712;2023-06-24T13:27:18;1.13;;;1.02;;
41677;SDS011;27364;49.026;8.712;2023-06-24T13:29:44;0.38;;;0.38;;
41677;SDS011;27364;49.026;8.712;2023-06-24T13:32:10;0.70;;;0.65;;
41677;SDS011;27364;49.026;8.712;2023-06-24T13:34:35;0.32;;;0.32;;
41677;SDS011;27364;49.026;8.712;2023-06-24T13:37:01;0.52;;;0.45;;
41677;SDS011;27364;49.026;8.712;2023-06-24T13:39:27;0.45;;;0.40;;
41677;SDS011;27364;49.026;8.712;2023-06-24T13:41:52;0.93;;;0.40;;
41677;SDS011;27364;49.026;8.712;2023-06-24T13:44:18;0.57;;;0.52;;
41677;SDS011;27364;49.026;8.712;2023-06-24T13:46:44;0.55;;;0.47;;
41677;SDS011;27364;49.026;8.712;2023-06-24T13:49:10;0.52;;;0.52;;
41677;SDS011;27364;49.026;8.712;2023-06-24T13:51:36;0.57;;;0.57;;
41677;SDS011;27364;49.026;8.712;2023-06-24T13:54:01;0.40;;;0.40;;
41677;SDS011;27364;49.026;8.712;2023-06-24T13:56:27;0.50;;;0.50;;
41677;SDS011;27364;49.026;8.712;2023-06-24T13:58:54;0.77;;;0.60;;
41677;SDS011;27364;49.026;8.712;2023-06-24T14:01:20;0.50;;;0.43;;
41677;SDS011;27364;49.026;8.712;2023-06-24T14:03:47;0.60;;;0.50;;
41677;SDS011;27364;49.026;8.712;2023-06-24T14:06:14;0.38;;;0.38;;
41677;SDS011;27364;49.026;8.712;2023-06-24T14:08:42;0.30;;;0.30;;
41677;SDS011;27364;49.026;8.712;2023-06-24T14:11:08;0.43;;;0.30;;
41677;SDS011;27364;49.026;8.712;2023-06-24T14:13:33;0.73;;;0.60;;
41677;SDS011;27364;49.026;8.712;2023-06-24T14:16:01;0.30;;;0.30;;
41677;SDS011;27364;49.026;8.712;2023-06-24T14:18:27;0.37;;;0.37;;
41677;SDS011;27364;49.026;8.712;2023-06-24T14:20:56;0.28;;;0.28;;
41677;SDS011;27364;49.026;8.712;2023-06-24T14:23:22;0.35;;;0.35;;
41677;SDS011;27364;49.026;8.712;2023-06-24T14:25:48;1.55;;;0.73;;
41677;SDS011;27364;49.026;8.712;2023-06-24T14:28:13;0.30;;;0.30;;
41677;SDS011;27364;49.026;8.712;2023-06-24T14:30:39;1.50;;;0.70;;
41677;SDS011;27364;49.026;8.712;2023-06-24T14:33:06;0.55;;;0.40;;
41677;SDS011;27364;49.026;8.712;2023-06-24T14:35:31;0.82;;;0.50;;
41677;SDS011;27364;49.026;8.712;2023-06-24T14:37:57;2.35;;;1.02;;
41677;SDS011;27364;49.026;8.712;2023-06-24T14:40:22;0.85;;;0.70;;
41677;SDS011;27364;49.026;8.712;2023-06-24T14:42:48;0.43;;;0.43;;
41677;SDS011;27364;49.026;8.712;2023-06-24T14:45:14;0.68;;;0.50;;
41677;SDS011;27364;49.026;8.712;2023-06-24T14:47:39;0.70;;;0.55;;
41677;SDS011;27364;49.026;8.712;2023-06-24T14:50:05;0.22;;;0.22;;
41677;SDS011;27364;49.026;8.712;2023-06-24T14:52:31;0.77;;;0.55;;
41677;SDS011;27364;49.026;8.712;2023-06-24T14:54:56;2.20;;;0.40;;
41677;SDS011;27364;49.026;8.712;2023-06-24T14:57:22;0.47;;;0.45;;
41677;SDS011;27364;49.026;8.712;2023-06-24T14:59:49;0.30;;;0.30;;
41677;SDS011;27364;49.026;8.712;2023-06-24T15:02:14;0.38;;;0.38;;
41677;SDS011;27364;49.026;8.712;2023-06-24T15:04:40;10.60;;;1.20;;
41677;SDS011;27364;49.026;8.712;2023-06-24T15:07:06;0.40;;;0.40;;
41677;SDS011;27364;49.026;8.712;2023-06-24T15:09:31;0.22;;;0.22;;
41677;SDS011;27364;49.026;8.712;2023-06-24T15:11:58;0.70;;;0.70;;
41677;SDS011;27364;49.026;8.712;2023-06-24T15:14:23;0.40;;;0.35;;